Estación Meteorológica Peña el Pijo (Robertgarden) [ 09/23/18 02:28:12 CEST ]

Fecha Hora Presion(HPa) Temp (°C) Humedad % Rocio (°C) Viento ( m/s) Direccion Lluvia 1Hora(mm) Lluvia 24H(mm) LLuvia Total(mm)
2018-Jul-30 01:01:51 1012.400 18.5 45 6.3         269.36
2018-Jul-30 02:01:35 1012.000 18.5 45 6.3         269.36
2018-Jul-30 03:01:52 1011.800 18.1 47 6.5         269.36
2018-Jul-30 04:02:08 1011.700 17.0 50 6.5         269.36
2018-Jul-30 05:01:57 1011.800 16.1 52 6.2         269.36
2018-Jul-30 06:01:51 1011.700 14.9 55 5.9         269.36
2018-Jul-30 07:01:42 1011.800 14.4 58 6.2         269.36
2018-Jul-30 08:01:58 1011.700 15.3 59 7.3         269.36
2018-Jul-30 09:01:49 1011.700 22.0 49 10.8         269.36
2018-Jul-30 10:01:50 1011.800 27.4 35 10.5         269.36
2018-Jul-30 11:01:46 1011.500 31.5 28 10.7         269.36
2018-Jul-30 12:01:47 1011.300 34.6 25 11.5         269.36
2018-Jul-30 13:01:42 1011.200 34.9 23 10.5         269.36
2018-Jul-30 14:01:38 1010.700 35.3 21 9.6         269.36
2018-Jul-30 15:01:38 1010.500 36.9 19 9.3         269.36
2018-Jul-30 16:01:34 1010.100 38.6 18 9.7         269.36
2018-Jul-30 17:01:53 1009.600 38.1 17 8.3         269.36
2018-Jul-30 18:01:42 1009.500 36.8 18 8.2         269.36
2018-Jul-30 19:01:52 1009.900 33.6 24 10.0 0.8 S     269.36
2018-Jul-30 20:01:49 1010.500 30.6 30 11.1 2.9 SSW     269.36
2018-Jul-30 21:01:51 1010.900 27.8 37 11.7         269.36
2018-Jul-30 22:01:38 1011.700 24.8 43 11.3         269.36
2018-Jul-30 23:01:40 1012.400 21.9 51 11.3         269.36

Temperatura Máxima:38°    Temperatura Mínima:14°
Presión Máxima:1012.400 Hpa    Presión Mínima:1009.500 Hpa


Volver